Time;durP1;ratioP1;P1;durP2;ratioP2;P2;SDS_P1;SDS_P2;PMS_P1;PMS_P2;Temp;Humidity;BMP_temperature;BMP_pressure;BME280_temperature;BME280_humidity;BME280_pressure;Samples;Min_cycle;Max_cycle;Signal;HPM_P1;HPM_P2
2022/08/01 00:01:23;;;;;;;1.50;1.30;;;22.10;99.90;;;;;;5035234;28;20418;-72
2022/08/01 00:03:48;;;;;;;1.67;1.17;;;22.20;99.90;;;;;;5035193;28;20164;-72
2022/08/01 00:06:14;;;;;;;1.20;1.07;;;22.20;99.90;;;;;;5035009;28;20179;-73
2022/08/01 00:08:39;;;;;;;1.40;1.23;;;22.10;99.90;;;;;;5035280;28;20236;-73
2022/08/01 00:11:05;;;;;;;1.47;1.20;;;22.20;99.90;;;;;;5035154;28;20195;-73
2022/08/01 00:13:30;;;;;;;1.70;0.93;;;22.20;99.90;;;;;;5033816;28;20183;-73
2022/08/01 00:15:56;;;;;;;1.77;1.20;;;22.20;99.90;;;;;;5035248;28;20247;-73
2022/08/01 00:18:22;;;;;;;1.73;1.47;;;22.10;99.90;;;;;;5034908;28;20167;-72
2022/08/01 00:20:47;;;;;;;1.90;1.70;;;22.10;99.90;;;;;;5035012;28;20258;-71
2022/08/01 00:23:13;;;;;;;1.60;1.30;;;22.10;99.90;;;;;;5033728;28;20172;-72
2022/08/01 00:25:38;;;;;;;2.10;1.70;;;22.10;99.90;;;;;;5034691;28;20559;-72
2022/08/01 00:28:08;;;;;;;1.50;1.40;;;22.10;99.90;;;;;;5034921;28;20178;-72
2022/08/01 00:30:34;;;;;;;2.00;1.37;;;22.10;99.90;;;;;;5034945;28;20265;-72
2022/08/01 00:32:59;;;;;;;1.40;1.00;;;22.10;99.90;;;;;;5033336;28;20414;-73
2022/08/01 00:35:25;;;;;;;1.50;1.30;;;22.00;99.90;;;;;;5034501;28;20497;-72
2022/08/01 00:37:51;;;;;;;1.30;1.17;;;22.00;99.90;;;;;;5034765;28;20499;-73
2022/08/01 00:40:17;;;;;;;1.23;1.13;;;21.90;99.90;;;;;;5034631;28;20270;-72
2022/08/01 00:42:42;;;;;;;2.03;1.67;;;21.90;99.90;;;;;;5033377;28;20438;-72
2022/08/01 00:45:08;;;;;;;2.27;1.70;;;21.80;99.90;;;;;;5034310;28;20178;-71
2022/08/01 00:47:34;;;;;;;1.80;1.50;;;21.80;99.90;;;;;;5034517;28;20545;-72
2022/08/01 00:49:59;;;;;;;5.00;1.87;;;21.70;99.90;;;;;;5033135;28;20419;-73
2022/08/01 00:52:25;;;;;;;1.93;1.30;;;21.70;99.90;;;;;;5034440;28;20191;-73
2022/08/01 00:54:51;;;;;;;2.27;1.23;;;21.60;99.90;;;;;;5033174;28;20242;-74
2022/08/01 00:57:17;;;;;;;2.63;1.67;;;21.60;99.90;;;;;;5034525;28;20217;-73
2022/08/01 00:59:42;;;;;;;1.77;1.50;;;21.50;99.90;;;;;;5034273;28;20406;-72
2022/08/01 01:02:08;;;;;;;1.53;1.37;;;21.60;99.90;;;;;;5034163;28;20187;-72
2022/08/01 01:04:33;;;;;;;1.70;1.27;;;21.50;99.90;;;;;;5034051;28;20229;-72
2022/08/01 01:07:23;;;;;;;1.47;1.30;;;21.50;99.90;;;;;;5032961;28;20637;-71
2022/08/01 01:10:22;;;;;;;2.40;1.67;;;21.50;99.90;;;;;;5034119;28;20170;-72
2022/08/01 01:12:58;;;;;;;2.57;1.47;;;21.40;99.90;;;;;;5032766;28;20419;-72
2022/08/01 01:15:50;;;;;;;2.03;1.60;;;21.40;99.90;;;;;;5033758;28;20460;-72
2022/08/01 01:18:34;;;;;;;1.50;1.30;;;21.30;99.90;;;;;;5033473;28;20446;-73
2022/08/01 01:21:12;;;;;;;1.90;1.67;;;21.30;99.90;;;;;;5033877;28;20472;-73
2022/08/01 01:23:52;;;;;;;5.20;2.00;;;21.30;99.90;;;;;;5033858;28;20410;-73
2022/08/01 01:26:57;;;;;;;1.70;1.47;;;21.20;99.90;;;;;;5032314;28;20406;-72
2022/08/01 01:29:27;;;;;;;1.57;1.30;;;21.20;99.90;;;;;;5033453;28;20397;-72
2022/08/01 01:32:02;;;;;;;1.60;1.50;;;21.20;99.90;;;;;;5033518;28;20457;-73
2022/08/01 01:34:29;;;;;;;1.97;1.77;;;21.10;99.90;;;;;;5032047;28;20508;-72
2022/08/01 01:36:58;;;;;;;2.53;1.77;;;21.10;99.90;;;;;;5032305;28;20438;-72
2022/08/01 01:39:26;;;;;;;2.70;1.33;;;21.10;99.90;;;;;;5033533;28;20462;-72
2022/08/01 01:41:54;;;;;;;1.93;1.70;;;21.10;99.90;;;;;;5032112;28;20469;-72
2022/08/01 01:44:20;;;;;;;1.83;1.40;;;21.10;99.90;;;;;;5031889;28;20505;-74
2022/08/01 01:46:48;;;;;;;3.20;1.40;;;21.00;99.90;;;;;;5033448;28;20494;-73
2022/08/01 01:49:14;;;;;;;1.83;1.70;;;21.00;99.90;;;;;;5032071;28;20172;-73
2022/08/01 01:51:42;;;;;;;1.87;1.40;;;21.00;99.90;;;;;;5033150;28;20496;-72
2022/08/01 01:54:09;;;;;;;2.00;1.33;;;21.00;99.90;;;;;;5031962;28;20450;-72
2022/08/01 01:56:48;;;;;;;1.97;1.50;;;21.00;99.90;;;;;;5033115;28;20402;-73
2022/08/01 01:59:16;;;;;;;1.50;1.20;;;21.00;99.90;;;;;;5032156;28;20425;-73
2022/08/01 02:01:42;;;;;;;2.33;1.60;;;20.90;99.90;;;;;;5033181;28;20441;-71
2022/08/01 02:04:09;;;;;;;1.30;1.20;;;20.90;99.90;;;;;;5033005;28;20504;-72
2022/08/01 02:06:36;;;;;;;2.53;1.67;;;20.90;99.90;;;;;;5032817;28;20430;-73
2022/08/01 02:09:03;;;;;;;1.57;1.47;;;20.90;99.90;;;;;;5032930;28;20410;-73
2022/08/01 02:11:28;;;;;;;1.90;1.60;;;20.90;99.90;;;;;;5032939;28;20429;-73
2022/08/01 02:14:04;;;;;;;5.50;1.90;;;20.90;99.90;;;;;;5032827;28;20811;-73
2022/08/01 02:16:34;;;;;;;2.87;2.23;;;20.90;99.90;;;;;;5031401;28;20172;-72
2022/08/01 02:19:00;;;;;;;2.37;1.63;;;20.90;99.90;;;;;;5032892;28;20473;-72
2022/08/01 02:21:41;;;;;;;1.53;1.17;;;20.90;99.90;;;;;;5032677;28;20418;-72
2022/08/01 02:24:14;;;;;;;2.10;1.80;;;20.90;99.90;;;;;;5032924;28;20410;-72
2022/08/01 02:26:43;;;;;;;2.13;1.30;;;20.90;99.90;;;;;;5032737;28;20398;-73
2022/08/01 02:29:12;;;;;;;1.40;1.20;;;20.90;99.90;;;;;;5032650;28;20394;-73
2022/08/01 02:31:41;;;;;;;1.67;1.30;;;20.80;99.90;;;;;;5032528;28;20509;-72
2022/08/01 02:34:11;;;;;;;1.83;1.07;;;20.80;99.90;;;;;;5032432;28;20523;-72
2022/08/01 02:36:38;;;;;;;1.80;1.43;;;20.80;99.90;;;;;;5031129;28;20414;-72
2022/08/01 02:39:08;;;;;;;2.70;1.63;;;20.80;99.90;;;;;;5031208;28;20825;-72
2022/08/01 02:41:39;;;;;;;1.70;1.50;;;20.70;99.90;;;;;;5032507;28;20423;-71
2022/08/01 02:44:08;;;;;;;7.27;2.50;;;20.70;99.90;;;;;;5032459;28;20403;-72
2022/08/01 02:46:40;;;;;;;2.70;1.90;;;20.60;99.90;;;;;;5030782;28;20508;-73
2022/08/01 02:49:08;;;;;;;1.93;1.60;;;20.60;99.90;;;;;;5032379;28;20994;-72
2022/08/01 02:51:35;;;;;;;1.90;1.60;;;20.50;99.90;;;;;;5032170;28;20800;-73
2022/08/01 02:54:04;;;;;;;1.87;1.40;;;20.50;99.90;;;;;;5032237;28;20801;-72
2022/08/01 02:56:35;;;;;;;2.10;1.63;;;20.40;99.90;;;;;;5032087;28;20410;-72
2022/08/01 02:59:07;;;;;;;2.17;1.40;;;20.40;99.90;;;;;;5030954;28;20414;-74
2022/08/01 03:01:35;;;;;;;2.47;1.63;;;20.30;99.90;;;;;;5032167;28;20433;-74
2022/08/01 03:04:01;;;;;;;1.93;1.57;;;20.30;99.90;;;;;;5032125;28;20414;-72
2022/08/01 03:06:29;;;;;;;3.17;1.67;;;20.30;99.90;;;;;;5031996;28;20485;-72
2022/08/01 03:08:55;;;;;;;1.83;1.43;;;20.30;99.90;;;;;;5032072;28;20406;-74
2022/08/01 03:11:24;;;;;;;4.70;2.67;;;20.30;99.90;;;;;;5031959;28;21002;-73
2022/08/01 03:13:51;;;;;;;2.10;1.90;;;20.20;99.90;;;;;;5031920;28;20452;-74
2022/08/01 03:16:18;;;;;;;1.87;1.63;;;20.30;99.90;;;;;;5031734;28;20403;-74
2022/08/01 03:18:45;;;;;;;2.40;2.10;;;20.30;99.90;;;;;;5031528;28;20481;-72
2022/08/01 03:21:13;;;;;;;2.23;2.03;;;20.30;99.90;;;;;;5031874;28;20433;-72
2022/08/01 03:23:41;;;;;;;2.43;1.80;;;20.30;99.90;;;;;;5030677;28;20414;-72
2022/08/01 03:26:07;;;;;;;2.20;1.87;;;20.30;99.90;;;;;;5030314;28;20831;-72
2022/08/01 03:28:33;;;;;;;2.33;1.90;;;20.40;99.90;;;;;;5032008;28;20399;-72
2022/08/01 03:31:01;;;;;;;1.93;1.50;;;20.40;99.90;;;;;;5030441;28;20434;-74
2022/08/01 03:33:27;;;;;;;2.37;1.50;;;20.40;99.90;;;;;;5031775;28;20402;-74
2022/08/01 03:35:54;;;;;;;2.37;1.63;;;20.40;99.90;;;;;;5031494;28;20416;-74
2022/08/01 03:38:25;;;;;;;2.43;2.00;;;20.40;99.90;;;;;;5031827;28;20689;-74
2022/08/01 03:40:58;;;;;;;4.43;2.10;;;20.40;99.90;;;;;;5031660;28;20422;-74
2022/08/01 03:43:39;;;;;;;2.60;2.13;;;20.50;99.90;;;;;;5031809;28;20769;-74
2022/08/01 03:46:13;;;;;;;1.77;1.60;;;20.50;99.90;;;;;;5030172;28;20513;-73
2022/08/01 03:48:48;;;;;;;3.50;2.23;;;20.50;99.90;;;;;;5030461;28;20931;-74
2022/08/01 03:51:14;;;;;;;5.50;2.70;;;20.50;99.90;;;;;;5031437;28;20848;-72
2022/08/01 03:53:42;;;;;;;3.13;2.40;;;20.50;99.90;;;;;;5031645;28;20410;-74
2022/08/01 03:56:08;;;;;;;2.40;2.00;;;20.50;99.90;;;;;;5031383;28;20852;-74
2022/08/01 03:58:38;;;;;;;2.50;2.23;;;20.60;99.90;;;;;;5030310;28;20936;-74
2022/08/01 04:01:05;;;;;;;2.60;2.07;;;20.50;99.90;;;;;;5030218;28;20476;-74
2022/08/01 04:03:31;;;;;;;3.90;2.60;;;20.60;99.90;;;;;;5031530;28;20425;-74
2022/08/01 04:05:57;;;;;;;5.27;2.60;;;20.60;99.90;;;;;;5031310;28;20413;-74
2022/08/01 04:08:23;;;;;;;3.70;2.10;;;20.60;99.90;;;;;;5031576;28;20549;-74
2022/08/01 04:10:48;;;;;;;3.07;2.37;;;20.60;99.90;;;;;;5031477;28;20184;-72
2022/08/01 04:13:14;;;;;;;3.70;2.73;;;20.60;99.90;;;;;;5030177;28;20182;-72
2022/08/01 04:15:39;;;;;;;3.63;2.20;;;20.60;99.90;;;;;;5029880;28;20207;-72
2022/08/01 04:18:06;;;;;;;5.30;2.70;;;20.60;99.90;;;;;;5031406;28;20163;-73
2022/08/01 04:20:32;;;;;;;3.17;2.87;;;20.60;99.90;;;;;;5031382;28;20191;-72
2022/08/01 04:22:57;;;;;;;4.70;2.50;;;20.60;99.90;;;;;;5031414;28;20528;-72
2022/08/01 04:25:32;;;;;;;3.33;2.53;;;20.60;99.90;;;;;;5031071;28;20172;-72
2022/08/01 04:28:00;;;;;;;2.83;2.30;;;20.70;99.90;;;;;;5031327;28;20167;-72
2022/08/01 04:30:29;;;;;;;3.57;2.80;;;20.70;99.90;;;;;;5033675;28;20433;-72
2022/08/01 04:32:58;;;;;;;2.77;2.40;;;20.70;99.90;;;;;;5034815;28;20773;-72
2022/08/01 04:35:26;;;;;;;3.20;2.87;;;20.70;99.90;;;;;;5034488;28;20485;-72
2022/08/01 04:37:52;;;;;;;5.33;2.80;;;20.80;99.90;;;;;;5034787;28;20403;-72
2022/08/01 04:40:21;;;;;;;3.10;2.47;;;20.70;99.90;;;;;;5034651;28;20811;-72
2022/08/01 04:42:48;;;;;;;2.53;2.20;;;20.80;99.90;;;;;;5033341;28;20418;-72
2022/08/01 04:45:15;;;;;;;3.20;2.10;;;20.80;99.90;;;;;;5034322;28;20556;-72
2022/08/01 04:47:42;;;;;;;5.60;3.10;;;20.80;99.90;;;;;;5034544;28;20414;-72
2022/08/01 04:50:09;;;;;;;1.97;1.77;;;20.80;99.90;;;;;;5034429;28;20433;-72
2022/08/01 04:52:36;;;;;;;3.40;2.60;;;20.80;99.90;;;;;;5034336;28;20439;-72
2022/08/01 04:55:02;;;;;;;2.87;2.57;;;20.90;99.90;;;;;;5034171;28;20529;-72
2022/08/01 04:57:27;;;;;;;2.90;2.33;;;20.90;99.90;;;;;;5034356;28;20403;-72
2022/08/01 04:59:56;;;;;;;4.40;2.50;;;20.90;99.90;;;;;;5034258;28;20396;-72
2022/08/01 05:02:23;;;;;;;3.87;2.33;;;20.90;99.90;;;;;;5034304;28;20156;-72
2022/08/01 05:04:49;;;;;;;3.47;3.00;;;20.90;99.90;;;;;;5033994;28;20402;-72
2022/08/01 05:07:15;;;;;;;4.53;2.67;;;21.00;99.90;;;;;;5034209;28;20903;-72
2022/08/01 05:09:42;;;;;;;6.43;2.73;;;21.00;99.90;;;;;;5032931;28;20849;-73
2022/08/01 05:12:08;;;;;;;3.70;2.60;;;21.00;99.90;;;;;;5033923;28;20430;-72
2022/08/01 05:14:34;;;;;;;5.17;3.67;;;21.00;99.90;;;;;;5033694;28;20511;-72
2022/08/01 05:17:02;;;;;;;5.67;3.80;;;21.10;99.90;;;;;;5034091;28;20402;-72
2022/08/01 05:19:35;;;;;;;4.43;3.37;;;21.00;99.90;;;;;;5033962;28;20652;-72
2022/08/01 05:22:04;;;;;;;6.37;4.27;;;21.00;99.90;;;;;;5033710;28;20431;-72
2022/08/01 05:24:34;;;;;;;4.33;3.93;;;21.00;99.90;;;;;;5033504;28;20541;-72
2022/08/01 05:27:00;;;;;;;3.67;3.23;;;21.00;99.90;;;;;;5033752;28;20493;-72
2022/08/01 05:29:26;;;;;;;5.23;3.90;;;21.00;99.90;;;;;;5033801;28;20512;-72
2022/08/01 05:31:52;;;;;;;5.80;4.50;;;21.00;99.90;;;;;;5032467;28;20950;-72
2022/08/01 05:34:18;;;;;;;4.60;4.00;;;21.00;99.90;;;;;;5033265;28;20449;-72
2022/08/01 05:36:44;;;;;;;7.10;3.80;;;21.00;99.90;;;;;;5033679;28;20402;-72
2022/08/01 05:39:10;;;;;;;5.70;5.10;;;21.00;99.90;;;;;;5033626;28;20433;-72
2022/08/01 05:41:36;;;;;;;8.43;4.10;;;21.10;99.90;;;;;;5032970;28;20190;-72
2022/08/01 05:44:06;;;;;;;8.37;4.57;;;21.10;99.90;;;;;;5033472;28;20422;-72
2022/08/01 05:46:33;;;;;;;7.23;3.67;;;21.10;99.90;;;;;;5033206;28;20461;-72
2022/08/01 05:48:59;;;;;;;4.80;3.53;;;21.10;99.90;;;;;;5033438;28;20499;-73
2022/08/01 05:51:25;;;;;;;4.67;3.43;;;21.00;99.90;;;;;;5033164;28;20446;-72
2022/08/01 05:53:51;;;;;;;5.10;3.67;;;21.10;99.90;;;;;;5032008;28;20470;-73
2022/08/01 05:56:17;;;;;;;8.20;4.63;;;21.10;99.90;;;;;;5031866;28;20420;-72
2022/08/01 05:58:43;;;;;;;5.40;4.10;;;21.20;99.90;;;;;;5033329;28;20497;-72
2022/08/01 06:01:08;;;;;;;5.90;5.30;;;21.30;99.90;;;;;;5033108;28;20194;-72
2022/08/01 06:03:34;;;;;;;5.30;3.73;;;21.40;99.90;;;;;;5032052;28;20266;-72
2022/08/01 06:06:00;;;;;;;6.77;4.27;;;21.50;99.90;;;;;;5032764;28;20214;-72
2022/08/01 06:08:26;;;;;;;4.47;3.50;;;21.60;99.90;;;;;;5033016;28;20258;-72
2022/08/01 06:10:51;;;;;;;7.60;4.10;;;21.70;99.90;;;;;;5032955;28;20469;-72
2022/08/01 06:13:19;;;;;;;4.50;3.50;;;21.80;99.90;;;;;;5032904;28;20217;-72
2022/08/01 06:15:45;;;;;;;4.30;3.80;;;21.90;99.90;;;;;;5032557;28;20192;-72
2022/08/01 06:18:10;;;;;;;7.07;4.37;;;21.90;99.90;;;;;;5032987;28;20497;-73
2022/08/01 06:20:36;;;;;;;4.50;3.17;;;22.00;99.90;;;;;;5032821;28;20505;-72
2022/08/01 06:23:01;;;;;;;8.03;4.20;;;22.10;99.90;;;;;;5031426;28;20186;-73
2022/08/01 06:25:27;;;;;;;6.63;3.77;;;22.30;99.90;;;;;;5032361;28;20171;-74
2022/08/01 06:27:53;;;;;;;5.40;4.63;;;22.40;99.90;;;;;;5031551;28;20183;-72
2022/08/01 06:30:18;;;;;;;5.80;4.40;;;22.40;99.90;;;;;;5032534;28;20198;-72
2022/08/01 06:32:44;;;;;;;5.47;4.07;;;22.60;99.90;;;;;;5032650;28;20176;-72
2022/08/01 06:35:09;;;;;;;5.37;4.17;;;22.80;99.90;;;;;;5032289;28;20194;-72
2022/08/01 06:37:35;;;;;;;3.90;3.00;;;23.00;99.90;;;;;;5032447;28;20237;-72
2022/08/01 06:40:11;;;;;;;5.43;3.50;;;23.10;99.90;;;;;;5032499;28;20163;-72
2022/08/01 06:42:37;;;;;;;5.93;3.33;;;23.20;99.90;;;;;;5032475;28;20206;-72
2022/08/01 06:45:04;;;;;;;4.33;3.43;;;23.30;99.90;;;;;;5032232;28;20405;-72
2022/08/01 06:47:29;;;;;;;4.90;3.90;;;23.30;99.90;;;;;;5032540;28;20418;-72
2022/08/01 06:49:55;;;;;;;6.40;4.70;;;23.40;99.90;;;;;;5032524;28;20406;-72
2022/08/01 06:52:21;;;;;;;4.87;3.80;;;23.50;99.90;;;;;;5031423;28;20225;-72
2022/08/01 06:54:46;;;;;;;6.07;3.73;;;23.50;99.90;;;;;;5031887;28;20200;-72
2022/08/01 06:57:12;;;;;;;5.90;4.13;;;23.40;99.90;;;;;;5032348;28;20170;-72
2022/08/01 06:59:37;;;;;;;4.77;3.90;;;23.40;99.90;;;;;;5032210;28;20167;-72
2022/08/01 07:02:03;;;;;;;4.90;3.70;;;23.40;99.90;;;;;;5032059;28;20183;-72
2022/08/01 07:04:29;;;;;;;3.47;3.17;;;23.50;99.90;;;;;;5031832;28;20582;-72
2022/08/01 07:06:55;;;;;;;4.57;3.50;;;23.60;99.90;;;;;;5032064;28;20164;-72
2022/08/01 07:09:20;;;;;;;5.10;4.60;;;23.70;99.90;;;;;;5032041;28;20182;-72
2022/08/01 07:11:46;;;;;;;4.53;3.40;;;23.70;99.90;;;;;;5032021;28;20184;-72
2022/08/01 07:14:11;;;;;;;3.90;3.50;;;23.80;99.90;;;;;;5030626;28;20192;-72
2022/08/01 07:16:37;;;;;;;7.00;4.27;;;23.80;99.90;;;;;;5031837;28;20226;-73
2022/08/01 07:19:02;;;;;;;5.57;4.97;;;23.80;99.90;;;;;;5031976;28;20167;-72
2022/08/01 07:21:28;;;;;;;6.47;3.30;;;23.80;99.90;;;;;;5031847;28;20183;-72
2022/08/01 07:23:53;;;;;;;4.30;3.90;;;23.90;99.90;;;;;;5031861;28;20258;-72
2022/08/01 07:26:19;;;;;;;4.20;3.53;;;24.10;99.90;;;;;;5031590;28;20222;-72
2022/08/01 07:28:44;;;;;;;4.33;3.93;;;24.30;99.90;;;;;;5031860;28;20168;-72
2022/08/01 07:31:10;;;;;;;8.33;3.83;;;24.40;99.90;;;;;;5031848;28;20187;-72
2022/08/01 07:33:36;;;;;;;6.10;4.00;;;24.70;99.90;;;;;;5031714;28;20178;-72
2022/08/01 07:36:03;;;;;;;5.23;4.73;;;25.00;99.90;;;;;;5031439;28;20160;-72
2022/08/01 07:38:29;;;;;;;6.23;3.97;;;25.10;99.90;;;;;;5031713;28;20406;-72
2022/08/01 07:40:54;;;;;;;4.90;3.57;;;25.50;99.90;;;;;;5031679;28;20428;-72
2022/08/01 07:43:20;;;;;;;3.83;3.10;;;25.70;99.90;;;;;;5031739;28;20162;-72
2022/08/01 07:45:46;;;;;;;6.67;5.10;;;26.00;99.90;;;;;;5031470;28;20199;-72
2022/08/01 07:48:11;;;;;;;4.47;4.03;;;26.60;99.90;;;;;;5031776;28;20250;-72
2022/08/01 07:50:37;;;;;;;6.63;5.07;;;27.60;99.90;;;;;;5031570;28;20195;-73
2022/08/01 07:53:03;;;;;;;4.67;4.23;;;28.50;99.90;;;;;;5031542;28;20187;-72
2022/08/01 07:55:29;;;;;;;7.53;4.03;;;28.90;99.90;;;;;;5031312;28;20191;-73
2022/08/01 07:57:54;;;;;;;6.50;3.90;;;29.00;99.90;;;;;;5031400;28;20410;-72
2022/08/01 08:00:20;;;;;;;4.57;3.17;;;29.00;99.90;;;;;;5031093;28;20192;-72
2022/08/01 08:02:45;;;;;;;4.73;3.97;;;29.60;99.90;;;;;;5030324;28;20170;-72
2022/08/01 08:05:11;;;;;;;6.10;4.30;;;30.40;99.90;;;;;;5035053;28;20250;-73
2022/08/01 08:07:37;;;;;;;3.93;3.27;;;31.70;99.90;;;;;;5034968;28;20258;-73
2022/08/01 08:10:04;;;;;;;8.30;4.87;;;32.40;99.90;;;;;;5034911;28;20401;-73
2022/08/01 08:12:30;;;;;;;3.60;3.30;;;32.50;99.50;;;;;;5034962;28;20917;-73
2022/08/01 08:14:58;;;;;;;4.63;4.13;;;32.20;97.70;;;;;;5034260;28;20442;-73
2022/08/01 08:17:24;;;;;;;5.57;3.50;;;31.80;96.80;;;;;;5033374;28;20653;-73
2022/08/01 08:19:49;;;;;;;4.60;3.50;;;31.50;99.30;;;;;;5034305;28;20406;-73
2022/08/01 08:22:15;;;;;;;4.87;4.47;;;31.20;99.50;;;;;;5034645;28;20399;-72
2022/08/01 08:24:40;;;;;;;4.53;4.07;;;30.80;98.90;;;;;;5034398;28;20178;-72
2022/08/01 08:27:07;;;;;;;3.77;3.43;;;30.60;99.90;;;;;;5034618;28;20259;-72
2022/08/01 08:29:33;;;;;;;3.50;3.20;;;30.00;99.90;;;;;;5034623;28;20585;-72
2022/08/01 08:32:00;;;;;;;4.37;3.97;;;29.80;99.90;;;;;;5034723;28;20513;-73
2022/08/01 08:34:26;;;;;;;4.73;3.27;;;29.70;99.90;;;;;;5034313;28;20234;-72
2022/08/01 08:36:53;;;;;;;5.50;4.03;;;29.60;99.90;;;;;;5034449;28;20406;-72
2022/08/01 08:39:18;;;;;;;4.13;3.67;;;29.60;99.90;;;;;;5034489;28;20746;-73
2022/08/01 08:41:44;;;;;;;3.47;3.17;;;29.50;99.90;;;;;;5034360;28;20437;-72
2022/08/01 08:44:10;;;;;;;3.50;3.20;;;29.20;99.90;;;;;;5033094;28;20199;-72
2022/08/01 08:46:42;;;;;;;3.87;3.47;;;29.40;99.90;;;;;;5034005;28;20172;-72
2022/08/01 08:49:09;;;;;;;3.37;3.07;;;29.40;99.90;;;;;;5034309;28;20202;-72
2022/08/01 08:51:38;;;;;;;3.13;2.80;;;29.40;99.90;;;;;;5032761;28;20458;-72
2022/08/01 08:54:05;;;;;;;4.40;3.10;;;29.40;99.90;;;;;;5034174;28;20446;-72
2022/08/01 08:56:34;;;;;;;4.60;4.20;;;29.30;99.90;;;;;;5032574;28;20456;-72
2022/08/01 08:59:00;;;;;;;3.97;3.57;;;29.10;99.90;;;;;;5034097;28;20486;-73
2022/08/01 09:01:26;;;;;;;4.23;3.83;;;29.10;99.90;;;;;;5032645;28;20437;-73
2022/08/01 09:03:53;;;;;;;4.10;3.73;;;28.90;99.90;;;;;;5032642;28;20418;-72
2022/08/01 09:06:19;;;;;;;4.50;3.90;;;28.60;99.90;;;;;;5033478;28;20179;-72
2022/08/01 09:08:44;;;;;;;4.67;3.90;;;28.40;99.90;;;;;;5033862;28;20413;-72
2022/08/01 09:11:10;;;;;;;5.80;4.10;;;28.30;99.90;;;;;;5032516;28;20437;-72
2022/08/01 09:13:36;;;;;;;4.00;3.60;;;28.20;99.90;;;;;;5032465;28;20256;-72
2022/08/01 09:16:01;;;;;;;7.23;3.47;;;28.20;99.90;;;;;;5032721;28;20171;-72
2022/08/01 09:18:33;;;;;;;4.87;4.20;;;28.40;99.90;;;;;;5033764;28;20168;-73
2022/08/01 09:21:19;;;;;;;6.10;4.10;;;29.10;99.90;;;;;;5033560;28;20576;-73
2022/08/01 09:23:50;;;;;;;4.70;3.93;;;30.20;99.90;;;;;;5033540;28;20402;-73
2022/08/01 09:26:19;;;;;;;4.20;3.37;;;31.20;99.90;;;;;;5031793;28;20406;-73
2022/08/01 09:28:48;;;;;;;4.97;3.83;;;31.90;99.90;;;;;;5032150;28;20776;-73
2022/08/01 09:31:16;;;;;;;4.67;4.00;;;32.40;99.90;;;;;;5033361;28;20466;-73
2022/08/01 09:33:57;;;;;;;3.70;3.37;;;32.80;99.90;;;;;;5033347;28;20416;-73
2022/08/01 09:36:25;;;;;;;11.80;8.10;;;33.00;96.10;;;;;;5033070;28;20417;-73
2022/08/01 09:38:52;;;;;;;10.63;4.57;;;33.00;94.60;;;;;;5033280;28;20457;-73
2022/08/01 09:41:31;;;;;;;4.63;4.00;;;33.40;96.50;;;;;;5033289;28;20505;-73
2022/08/01 09:43:57;;;;;;;3.50;3.20;;;34.70;95.00;;;;;;5033216;28;20959;-73
2022/08/01 09:46:23;;;;;;;5.23;3.40;;;36.40;88.90;;;;;;5032871;28;20417;-73
2022/08/01 09:48:56;;;;;;;4.67;3.70;;;38.10;72.60;;;;;;5033115;28;20175;-73
2022/08/01 09:51:29;;;;;;;3.57;3.27;;;39.40;59.80;;;;;;5032985;28;20207;-73
2022/08/01 09:53:55;;;;;;;3.90;3.60;;;40.10;56.00;;;;;;5032971;28;20471;-74
2022/08/01 09:56:22;;;;;;;3.77;3.47;;;40.20;54.70;;;;;;5032932;28;20430;-73
2022/08/01 09:58:51;;;;;;;2.97;2.77;;;40.30;54.10;;;;;;5033072;28;20692;-73
2022/08/01 10:01:17;;;;;;;3.60;3.00;;;40.90;53.70;;;;;;5033175;28;20974;-74
2022/08/01 10:03:42;;;;;;;3.60;3.30;;;40.80;51.40;;;;;;5032914;28;20626;-74
2022/08/01 10:06:21;;;;;;;3.53;3.20;;;40.40;51.50;;;;;;5031035;28;20174;-73
2022/08/01 10:08:47;;;;;;;5.57;3.67;;;39.50;51.60;;;;;;5031463;28;20164;-73
2022/08/01 10:11:13;;;;;;;13.63;3.20;;;39.00;53.20;;;;;;5031947;28;20935;-73
2022/08/01 10:13:39;;;;;;;3.13;2.90;;;38.00;52.40;;;;;;5032499;28;20392;-73
2022/08/01 10:16:06;;;;;;;3.20;2.90;;;37.20;54.30;;;;;;5032462;28;20163;-73
2022/08/01 10:18:34;;;;;;;3.20;2.90;;;36.40;54.80;;;;;;5032503;28;20385;-73
2022/08/01 10:21:01;;;;;;;3.33;3.07;;;36.10;57.10;;;;;;5032351;28;20430;-73
2022/08/01 10:23:30;;;;;;;5.70;3.40;;;35.80;57.10;;;;;;5032584;28;20895;-73
2022/08/01 10:25:59;;;;;;;3.63;3.33;;;35.50;58.50;;;;;;5030711;28;20421;-73
2022/08/01 10:28:28;;;;;;;3.47;3.00;;;35.00;59.00;;;;;;5032561;28;20422;-73
2022/08/01 10:30:54;;;;;;;3.60;2.93;;;34.80;59.50;;;;;;5032202;28;20422;-73
2022/08/01 10:33:22;;;;;;;2.80;2.60;;;35.20;60.00;;;;;;5031046;28;20464;-73
2022/08/01 10:35:48;;;;;;;4.07;3.10;;;36.00;60.00;;;;;;5032017;28;20195;-73
2022/08/01 10:38:14;;;;;;;3.70;3.40;;;36.80;59.00;;;;;;5032352;28;20406;-73
2022/08/01 10:40:41;;;;;;;2.77;2.57;;;37.40;56.50;;;;;;5031015;28;20243;-74
2022/08/01 10:43:09;;;;;;;3.10;2.80;;;38.10;55.50;;;;;;5032174;28;20413;-75
2022/08/01 10:45:36;;;;;;;3.10;2.53;;;38.30;54.00;;;;;;5031743;28;20399;-73
2022/08/01 10:48:22;;;;;;;3.40;3.10;;;38.40;54.90;;;;;;5032165;28;20398;-73
2022/08/01 10:50:52;;;;;;;3.20;2.90;;;38.90;54.10;;;;;;5031919;28;20393;-73
2022/08/01 10:53:22;;;;;;;3.37;3.07;;;38.50;52.60;;;;;;5032106;28;20825;-73
2022/08/01 10:55:58;;;;;;;3.13;2.83;;;38.10;52.00;;;;;;5031597;28;20425;-73
2022/08/01 10:58:37;;;;;;;3.20;2.90;;;37.30;53.60;;;;;;5030987;28;20461;-73
2022/08/01 11:01:32;;;;;;;3.23;2.93;;;36.90;54.30;;;;;;5031990;28;20434;-73
2022/08/01 11:04:02;;;;;;;3.10;2.80;;;36.40;53.60;;;;;;5026146;28;20481;-73
2022/08/01 11:06:41;;;;;;;8.60;2.77;;;36.00;55.80;;;;;;5031393;28;20414;-73
2022/08/01 11:09:13;;;;;;;2.80;2.30;;;36.60;53.30;;;;;;5031898;28;20904;-75
2022/08/01 11:12:07;;;;;;;2.60;2.40;;;38.20;53.70;;;;;;5031752;28;20834;-75
2022/08/01 11:14:34;;;;;;;3.20;2.37;;;40.00;50.50;;;;;;5031627;28;20449;-73
2022/08/01 11:17:31;;;;;;;2.80;2.60;;;41.60;48.80;;;;;;5030467;28;20719;-73
2022/08/01 11:20:17;;;;;;;2.87;2.67;;;41.30;44.50;;;;;;5031579;28;20381;-73
2022/08/01 11:22:58;;;;;;;3.17;2.97;;;39.80;46.30;;;;;;5031719;28;20404;-73
2022/08/01 11:25:47;;;;;;;2.63;2.43;;;39.30;47.80;;;;;;5031584;28;20398;-73
2022/08/01 11:28:15;;;;;;;2.90;2.60;;;39.30;48.40;;;;;;5029742;28;20493;-73
2022/08/01 11:30:52;;;;;;;3.20;3.00;;;40.20;46.60;;;;;;5031520;28;20401;-73
2022/08/01 11:33:39;;;;;;;3.03;2.57;;;41.10;46.40;;;;;;5031548;28;20917;-74
2022/08/01 11:36:11;;;;;;;4.03;3.73;;;42.60;46.50;;;;;;5031271;28;20434;-73
2022/08/01 11:39:10;;;;;;;2.47;2.27;;;44.10;41.60;;;;;;5033053;28;20456;-73
2022/08/01 11:41:37;;;;;;;2.40;2.20;;;45.00;40.50;;;;;;5035579;28;20418;-73
2022/08/01 11:44:10;;;;;;;2.77;2.57;;;45.90;37.80;;;;;;5034103;28;20472;-73
2022/08/01 11:46:45;;;;;;;2.33;2.23;;;46.10;35.50;;;;;;5035246;28;20369;-73
2022/08/01 11:49:27;;;;;;;2.50;2.40;;;46.40;35.30;;;;;;5034097;28;20423;-73
2022/08/01 11:52:05;;;;;;;1.97;1.87;;;46.70;34.60;;;;;;5035028;28;20503;-73
2022/08/01 11:54:37;;;;;;;2.97;2.77;;;46.80;33.70;;;;;;5034945;28;20425;-73
2022/08/01 11:57:10;;;;;;;2.63;2.47;;;47.10;35.60;;;;;;5035291;28;20775;-73
2022/08/01 11:59:48;;;;;;;2.90;2.70;;;47.70;35.60;;;;;;5034851;28;20381;-74
2022/08/01 12:02:28;;;;;;;2.70;2.50;;;47.40;34.40;;;;;;5035119;28;20373;-73
2022/08/01 12:05:09;;;;;;;2.33;2.20;;;46.40;34.80;;;;;;5034697;28;20891;-73
2022/08/01 12:07:36;;;;;;;2.23;2.03;;;44.80;35.70;;;;;;5035000;28;20381;-73
2022/08/01 12:10:11;;;;;;;2.57;2.40;;;43.70;37.50;;;;;;5035284;28;20442;-73
2022/08/01 12:12:43;;;;;;;2.77;2.57;;;42.60;37.90;;;;;;5035317;28;20466;-73
2022/08/01 12:15:09;;;;;;;5.03;2.47;;;41.40;39.20;;;;;;5034631;28;20425;-73
2022/08/01 12:17:37;;;;;;;3.20;2.87;;;40.20;40.30;;;;;;5035118;28;20402;-72
2022/08/01 12:20:09;;;;;;;2.63;2.43;;;39.00;42.10;;;;;;5034973;28;20717;-73
2022/08/01 12:22:35;;;;;;;2.50;2.10;;;38.20;43.70;;;;;;5035072;28;20398;-73
2022/08/01 12:25:09;;;;;;;3.10;2.73;;;38.00;44.60;;;;;;5033543;28;20418;-73
2022/08/01 12:27:35;;;;;;;2.43;2.23;;;38.20;45.30;;;;;;5033701;28;20483;-73
2022/08/01 12:30:01;;;;;;;2.63;2.40;;;38.60;44.50;;;;;;5034914;28;20771;-73
2022/08/01 12:32:32;;;;;;;2.10;1.93;;;39.30;42.80;;;;;;5034859;28;20398;-73
2022/08/01 12:35:05;;;;;;;2.30;2.10;;;39.30;42.80;;;;;;5034514;28;20195;-73
2022/08/01 12:37:32;;;;;;;2.30;2.10;;;39.20;43.50;;;;;;5034886;28;20377;-73
2022/08/01 12:39:59;;;;;;;2.53;2.33;;;39.00;42.00;;;;;;5034764;28;20484;-73
2022/08/01 12:42:24;;;;;;;2.60;2.40;;;38.50;42.70;;;;;;5034662;28;20406;-73
2022/08/01 12:44:52;;;;;;;2.63;2.13;;;37.80;43.10;;;;;;5034378;28;20449;-73
2022/08/01 12:47:19;;;;;;;2.03;1.83;;;37.40;42.90;;;;;;5034607;28;20250;-73
2022/08/01 12:49:46;;;;;;;2.47;2.10;;;37.00;43.40;;;;;;5033185;28;20421;-73
2022/08/01 12:52:12;;;;;;;2.70;2.00;;;36.60;43.60;;;;;;5034234;28;20504;-73
2022/08/01 12:55:08;;;;;;;2.23;2.00;;;36.10;45.00;;;;;;5034114;28;20540;-73